Antigo, Wisconsin
Current Conditions -  °F | °C
As of 5:35 AM on Tuesday 21 Oct 2014 (Local Time) from KAIG Reporting Station
Overcast Overcast  
Wind Chill: 32°   Ceiling: 1700
Heat Index: 39°   Visibility: 10mi
Dew Point: 35°   Wind: 9mph
Humidity: 86%   Direction: 20°NNE
Pressure: 30.15"   Gusts: NA
Location:  45.14°N, 89.15°W
Report Text: KAIG 211035Z AUTO 02008KT 10SM OVC017 04/02 A3015 RMK AO2 T00370016
Loading
Personal Weather Stations






























Interactive Weather Map New forecast layout! Learn more

10-Day Weather Forecast

Advertisements
Track Severe Weather on mobile